sensor_id;sensor_type;location;lat;lon;timestamp;P1;durP1;ratioP1;P2;durP2;ratioP2
62556;SDS011;48612;50.742;-1.226;2022-08-18T03:23:30;29.35;;;13.57;;
62556;SDS011;48612;50.742;-1.226;2022-08-18T13:38:33;5.60;;;4.00;;
62556;SDS011;48612;50.742;-1.226;2022-08-18T13:41:19;9.02;;;4.70;;
62556;SDS011;48612;50.742;-1.226;2022-08-18T13:47:47;8.05;;;4.05;;
62556;SDS011;48612;50.742;-1.226;2022-08-18T16:00:45;5.60;;;2.95;;
62556;SDS011;48612;50.742;-1.226;2022-08-18T16:04:15;5.63;;;3.00;;
62556;SDS011;48612;50.742;-1.226;2022-08-18T16:06:42;6.10;;;3.17;;
62556;SDS011;48612;50.742;-1.226;2022-08-18T16:29:50;6.93;;;3.40;;
62556;SDS011;48612;50.742;-1.226;2022-08-18T16:32:53;13.07;;;3.85;;
62556;SDS011;48612;50.742;-1.226;2022-08-18T16:35:38;13.27;;;3.30;;
62556;SDS011;48612;50.742;-1.226;2022-08-18T16:38:14;18.55;;;4.10;;
62556;SDS011;48612;50.742;-1.226;2022-08-18T16:41:14;7.90;;;3.20;;
62556;SDS011;48612;50.742;-1.226;2022-08-18T16:43:41;7.60;;;3.80;;
62556;SDS011;48612;50.742;-1.226;2022-08-18T16:46:15;8.82;;;3.58;;
62556;SDS011;48612;50.742;-1.226;2022-08-18T16:49:26;8.18;;;3.50;;
62556;SDS011;48612;50.742;-1.226;2022-08-18T16:52:16;6.20;;;3.42;;
62556;SDS011;48612;50.742;-1.226;2022-08-18T16:55:15;11.85;;;3.60;;
62556;SDS011;48612;50.742;-1.226;2022-08-18T16:57:49;8.50;;;3.67;;
62556;SDS011;48612;50.742;-1.226;2022-08-18T17:00:34;8.23;;;4.18;;
62556;SDS011;48612;50.742;-1.226;2022-08-18T17:03:18;7.35;;;3.92;;
62556;SDS011;48612;50.742;-1.226;2022-08-18T17:06:22;13.65;;;3.63;;
62556;SDS011;48612;50.742;-1.226;2022-08-18T17:08:54;14.43;;;4.20;;
62556;SDS011;48612;50.742;-1.226;2022-08-18T17:12:00;9.88;;;4.20;;
62556;SDS011;48612;50.742;-1.226;2022-08-18T17:14:29;6.57;;;3.10;;
62556;SDS011;48612;50.742;-1.226;2022-08-18T17:17:09;11.15;;;4.03;;
62556;SDS011;48612;50.742;-1.226;2022-08-18T17:19:35;14.32;;;3.83;;
62556;SDS011;48612;50.742;-1.226;2022-08-18T17:22:15;7.90;;;3.67;;
62556;SDS011;48612;50.742;-1.226;2022-08-18T17:24:45;8.60;;;3.58;;
62556;SDS011;48612;50.742;-1.226;2022-08-18T17:27:32;10.63;;;3.30;;
62556;SDS011;48612;50.742;-1.226;2022-08-18T17:32:39;8.75;;;3.13;;
62556;SDS011;48612;50.742;-1.226;2022-08-18T17:35:08;8.80;;;2.95;;
62556;SDS011;48612;50.742;-1.226;2022-08-18T17:37:38;9.77;;;3.30;;
62556;SDS011;48612;50.742;-1.226;2022-08-18T17:40:19;8.10;;;3.15;;
62556;SDS011;48612;50.742;-1.226;2022-08-18T17:42:52;6.15;;;3.03;;
62556;SDS011;48612;50.742;-1.226;2022-08-18T17:45:23;10.73;;;3.58;;
62556;SDS011;48612;50.742;-1.226;2022-08-18T17:48:11;10.98;;;3.33;;
62556;SDS011;48612;50.742;-1.226;2022-08-18T17:50:53;10.55;;;3.63;;
62556;SDS011;48612;50.742;-1.226;2022-08-18T18:00:09;8.25;;;2.90;;
62556;SDS011;48612;50.742;-1.226;2022-08-18T18:02:47;15.40;;;3.42;;
62556;SDS011;48612;50.742;-1.226;2022-08-18T18:05:18;11.30;;;3.20;;
62556;SDS011;48612;50.742;-1.226;2022-08-18T18:08:15;8.35;;;3.03;;
62556;SDS011;48612;50.742;-1.226;2022-08-18T18:10:46;6.80;;;2.90;;
62556;SDS011;48612;50.742;-1.226;2022-08-18T18:13:42;18.05;;;4.07;;
62556;SDS011;48612;50.742;-1.226;2022-08-18T18:16:26;20.65;;;3.38;;
62556;SDS011;48612;50.742;-1.226;2022-08-18T18:19:23;10.65;;;3.20;;
62556;SDS011;48612;50.742;-1.226;2022-08-18T18:22:00;8.40;;;3.47;;
62556;SDS011;48612;50.742;-1.226;2022-08-18T18:24:31;10.38;;;3.88;;
62556;SDS011;48612;50.742;-1.226;2022-08-18T18:28:10;8.02;;;3.47;;
62556;SDS011;48612;50.742;-1.226;2022-08-18T18:36:07;12.95;;;3.50;;
62556;SDS011;48612;50.742;-1.226;2022-08-18T18:39:08;7.68;;;3.58;;
62556;SDS011;48612;50.742;-1.226;2022-08-18T18:41:46;13.57;;;3.88;;
62556;SDS011;48612;50.742;-1.226;2022-08-18T18:44:27;15.07;;;3.90;;
62556;SDS011;48612;50.742;-1.226;2022-08-18T19:32:06;14.82;;;5.20;;
62556;SDS011;48612;50.742;-1.226;2022-08-18T19:40:53;14.38;;;6.03;;
62556;SDS011;48612;50.742;-1.226;2022-08-18T19:44:04;17.60;;;5.18;;
62556;SDS011;48612;50.742;-1.226;2022-08-18T19:47:07;12.15;;;6.00;;
62556;SDS011;48612;50.742;-1.226;2022-08-18T20:16:37;15.55;;;6.32;;
62556;SDS011;48612;50.742;-1.226;2022-08-18T20:19:51;16.98;;;6.20;;
62556;SDS011;48612;50.742;-1.226;2022-08-18T20:32:01;15.60;;;5.78;;
62556;SDS011;48612;50.742;-1.226;2022-08-18T20:48:37;15.05;;;6.38;;
62556;SDS011;48612;50.742;-1.226;2022-08-18T20:51:30;14.77;;;6.32;;
62556;SDS011;48612;50.742;-1.226;2022-08-18T21:00:16;18.17;;;6.75;;
62556;SDS011;48612;50.742;-1.226;2022-08-18T21:02:49;20.13;;;6.82;;
62556;SDS011;48612;50.742;-1.226;2022-08-18T21:20:07;12.15;;;4.63;;
62556;SDS011;48612;50.742;-1.226;2022-08-18T22:50:46;12.02;;;3.97;;
